createdAt,value
2019-03-03T00:01:43.223Z,7.17
2019-03-03T00:05:47.238Z,6.30
2019-03-03T00:09:51.063Z,6.10
2019-03-03T00:13:54.786Z,5.00
2019-03-03T00:17:58.082Z,5.27
2019-03-03T00:22:01.827Z,4.67
2019-03-03T00:26:05.186Z,4.80
2019-03-03T00:30:08.832Z,5.50
2019-03-03T00:34:12.182Z,5.40
2019-03-03T00:38:37.494Z,5.33
2019-03-03T00:42:45.978Z,4.47
2019-03-03T00:47:07.930Z,5.20
2019-03-03T00:51:24.219Z,6.07
2019-03-03T00:55:47.500Z,5.03
2019-03-03T01:00:07.831Z,6.57
2019-03-03T01:04:29.296Z,6.50
2019-03-03T01:08:48.400Z,8.00
2019-03-03T01:13:03.278Z,5.90
2019-03-03T01:17:14.450Z,6.40
2019-03-03T01:21:55.078Z,6.77
2019-03-03T01:25:58.710Z,5.47
2019-03-03T01:30:02.619Z,6.30
2019-03-03T01:34:06.504Z,5.77
2019-03-03T01:38:09.794Z,6.00
2019-03-03T01:42:13.939Z,5.63
2019-03-03T01:46:17.650Z,4.80
2019-03-03T01:50:21.299Z,5.50
2019-03-03T01:54:25.270Z,5.40
2019-03-03T01:58:28.546Z,6.30
2019-03-03T02:02:31.910Z,5.70
2019-03-03T02:06:35.714Z,5.53
2019-03-03T02:10:39.322Z,5.73
2019-03-03T02:14:42.614Z,5.73
2019-03-03T02:18:46.643Z,6.60
2019-03-03T02:22:49.943Z,6.67
2019-03-03T02:26:53.491Z,7.00
2019-03-03T02:30:56.768Z,7.20
2019-03-03T02:35:00.166Z,6.40
2019-03-03T02:39:06.002Z,7.20
2019-03-03T02:43:09.368Z,7.37
2019-03-03T02:47:12.663Z,6.87
2019-03-03T02:51:15.939Z,6.00
2019-03-03T02:55:19.231Z,6.90
2019-03-03T02:59:22.976Z,9.37
2019-03-03T03:03:27.067Z,6.63
2019-03-03T03:07:39.821Z,9.13
2019-03-03T03:11:51.171Z,9.67
2019-03-03T03:16:15.534Z,9.43
2019-03-03T03:20:42.723Z,12.47
2019-03-03T03:25:03.639Z,12.70
2019-03-03T03:29:25.439Z,11.50
2019-03-03T03:33:57.395Z,13.57
2019-03-03T03:38:12.775Z,13.13
2019-03-03T03:42:25.123Z,14.13
2019-03-03T03:46:57.154Z,15.07
2019-03-03T03:51:11.434Z,14.97
2019-03-03T03:55:52.551Z,16.33
2019-03-03T04:00:07.307Z,16.10
2019-03-03T04:04:33.094Z,13.87
2019-03-03T04:08:50.878Z,17.97
2019-03-03T04:13:12.030Z,17.57
2019-03-03T04:17:39.318Z,16.63
2019-03-03T04:21:55.889Z,18.83
2019-03-03T04:26:18.719Z,19.10
2019-03-03T04:30:39.445Z,20.40
2019-03-03T04:34:57.486Z,18.80
2019-03-03T04:39:13.170Z,20.83
2019-03-03T04:43:25.070Z,20.73
2019-03-03T04:47:46.606Z,20.97
2019-03-03T04:52:15.342Z,18.90
2019-03-03T04:56:27.865Z,19.60
2019-03-03T05:00:42.606Z,21.67
2019-03-03T05:05:11.542Z,21.03
2019-03-03T05:09:21.262Z,20.77
2019-03-03T05:13:50.391Z,21.70
2019-03-03T05:17:58.967Z,22.03
2019-03-03T05:22:02.342Z,22.27
2019-03-03T05:26:05.639Z,23.47
2019-03-03T05:30:08.970Z,21.27
2019-03-03T05:34:12.566Z,22.13
2019-03-03T05:38:15.874Z,21.83
2019-03-03T05:42:19.630Z,19.83
2019-03-03T05:46:22.915Z,22.63
2019-03-03T05:50:26.662Z,22.10
2019-03-03T05:54:30.398Z,21.50
2019-03-03T05:58:33.690Z,21.63
2019-03-03T06:02:37.431Z,22.00
2019-03-03T06:06:41.154Z,19.17
2019-03-03T06:10:44.458Z,21.60
2019-03-03T06:14:47.754Z,18.53
2019-03-03T06:18:51.034Z,19.80
2019-03-03T06:22:54.342Z,22.10
2019-03-03T06:26:57.634Z,22.60
2019-03-03T06:31:00.946Z,20.80
2019-03-03T06:35:05.910Z,22.07
2019-03-03T06:39:09.202Z,19.67
2019-03-03T06:43:12.938Z,18.90
2019-03-03T06:47:16.691Z,20.80
2019-03-03T06:51:19.978Z,20.97
2019-03-03T06:55:23.725Z,20.10
2019-03-03T06:59:27.018Z,19.30
2019-03-03T07:03:30.306Z,20.47
2019-03-03T07:07:33.611Z,19.10
2019-03-03T07:11:36.902Z,20.20
2019-03-03T07:15:40.202Z,21.30
2019-03-03T07:19:43.939Z,19.60
2019-03-03T07:23:47.234Z,20.30
2019-03-03T07:27:51.286Z,21.53
2019-03-03T07:31:55.623Z,21.27
2019-03-03T07:35:59.376Z,21.30
2019-03-03T07:40:02.750Z,22.40
2019-03-03T07:44:06.058Z,22.60
2019-03-03T07:48:09.422Z,19.47
2019-03-03T07:52:13.146Z,20.03
2019-03-03T07:56:16.446Z,19.17
2019-03-03T08:00:20.871Z,19.43
2019-03-03T08:04:24.595Z,19.70
2019-03-03T08:08:28.426Z,15.80
2019-03-03T08:12:31.994Z,16.90
2019-03-03T08:16:35.554Z,15.47
2019-03-03T08:20:39.168Z,16.03
2019-03-03T08:24:42.459Z,14.77
2019-03-03T08:28:46.099Z,13.90
2019-03-03T08:32:49.398Z,13.00
2019-03-03T08:36:53.127Z,13.80
2019-03-03T08:40:56.419Z,13.00
2019-03-03T08:45:14.417Z,14.23
2019-03-03T08:49:52.675Z,13.93
2019-03-03T08:54:22.183Z,14.87
2019-03-03T08:58:37.996Z,13.80
2019-03-03T09:02:49.694Z,14.43
2019-03-03T09:07:17.542Z,12.23
2019-03-03T09:11:38.898Z,14.87
2019-03-03T09:16:00.350Z,13.70
2019-03-03T09:20:26.082Z,13.33
2019-03-03T09:24:47.370Z,12.47
2019-03-03T09:29:06.530Z,14.07
2019-03-03T09:33:28.186Z,11.70
2019-03-03T09:38:00.222Z,12.20
2019-03-03T09:42:16.582Z,12.60
2019-03-03T09:46:37.202Z,11.43
2019-03-03T09:50:59.686Z,11.83
2019-03-03T09:55:09.386Z,13.50
2019-03-03T09:59:26.610Z,11.77
2019-03-03T10:03:39.754Z,9.80
2019-03-03T10:08:08.002Z,11.70
2019-03-03T10:12:16.338Z,11.10
2019-03-03T10:16:27.652Z,11.37
2019-03-03T10:20:53.331Z,12.10
2019-03-03T10:25:04.023Z,12.00
2019-03-03T10:29:13.919Z,11.43
2019-03-03T10:33:42.638Z,10.13
2019-03-03T10:37:56.683Z,11.10
2019-03-03T10:42:24.966Z,6.30
2019-03-03T10:46:48.347Z,4.90
2019-03-03T10:50:56.542Z,6.17
2019-03-03T10:55:11.511Z,5.13
2019-03-03T10:59:34.414Z,4.03
2019-03-03T11:03:57.340Z,4.73
2019-03-03T11:08:19.160Z,4.10
2019-03-03T11:12:35.531Z,4.13
2019-03-03T11:16:48.090Z,4.50
2019-03-03T11:21:09.984Z,6.90
2019-03-03T11:25:29.434Z,6.93
2019-03-03T11:29:43.637Z,8.30
2019-03-03T11:33:59.778Z,11.53
2019-03-03T11:38:27.815Z,10.70
2019-03-03T11:42:39.618Z,10.93
2019-03-03T11:46:50.925Z,11.70
2019-03-03T11:51:02.478Z,10.60
2019-03-03T11:55:19.107Z,11.07
2019-03-03T12:00:00.318Z,10.10
2019-03-03T12:04:10.912Z,10.50
2019-03-03T12:08:29.068Z,10.60
2019-03-03T12:12:58.123Z,8.60
2019-03-03T12:17:21.039Z,7.60
2019-03-03T12:21:35.709Z,9.87
2019-03-03T12:25:46.138Z,8.90
2019-03-03T12:30:14.606Z,8.67
2019-03-03T12:34:37.842Z,9.57
2019-03-03T12:38:56.286Z,9.83
2019-03-03T12:43:19.151Z,10.57
2019-03-03T12:47:48.566Z,9.57
2019-03-03T12:52:10.453Z,10.20
2019-03-03T12:56:21.795Z,9.77
2019-03-03T13:00:35.038Z,10.37
2019-03-03T13:05:03.730Z,9.17
2019-03-03T13:09:25.946Z,10.13
2019-03-03T13:13:47.710Z,11.17
2019-03-03T13:18:01.447Z,9.50
2019-03-03T13:22:19.380Z,10.80
2019-03-03T13:26:53.543Z,10.13
2019-03-03T13:31:09.522Z,11.23
2019-03-03T13:35:26.601Z,9.87
2019-03-03T13:39:48.602Z,10.20
2019-03-03T13:43:52.338Z,10.90
2019-03-03T13:47:56.114Z,10.70
2019-03-03T13:51:59.954Z,11.20
2019-03-03T13:56:04.235Z,10.43
2019-03-03T14:00:09.930Z,10.97
2019-03-03T14:04:13.810Z,10.67
2019-03-03T14:08:17.544Z,9.60
2019-03-03T14:12:21.378Z,9.37
2019-03-03T14:16:25.422Z,8.17
2019-03-03T14:20:29.262Z,8.50
2019-03-03T14:24:33.319Z,9.10
2019-03-03T14:28:37.112Z,9.33
2019-03-03T14:32:41.267Z,9.20
2019-03-03T14:36:45.017Z,8.93
2019-03-03T14:40:48.734Z,9.50
2019-03-03T14:44:52.718Z,10.80
2019-03-03T14:48:56.711Z,9.70
2019-03-03T14:53:00.714Z,10.67
2019-03-03T14:57:04.626Z,11.10
2019-03-03T15:01:08.458Z,11.47
2019-03-03T15:05:12.274Z,11.00
2019-03-03T15:09:23.470Z,13.40
2019-03-03T15:13:27.291Z,12.83
2019-03-03T15:17:31.018Z,13.77
2019-03-03T15:21:35.039Z,13.97
2019-03-03T15:25:38.842Z,14.10
2019-03-03T15:29:42.567Z,16.37
2019-03-03T15:33:47.067Z,16.27
2019-03-03T15:37:50.830Z,13.83
2019-03-03T15:41:54.658Z,16.47
2019-03-03T15:45:58.394Z,16.70
2019-03-03T15:50:02.531Z,14.27
2019-03-03T15:54:06.426Z,16.03
2019-03-03T15:58:11.118Z,17.07
2019-03-03T16:02:15.381Z,15.67
2019-03-03T16:06:19.418Z,16.57
2019-03-03T16:10:23.242Z,18.83
2019-03-03T16:14:27.391Z,17.23
2019-03-03T16:18:30.686Z,19.20
2019-03-03T16:22:34.910Z,17.50
2019-03-03T16:26:39.204Z,17.00
2019-03-03T16:30:43.476Z,17.57
2019-03-03T16:34:47.653Z,17.00
2019-03-03T16:38:52.311Z,17.80
2019-03-03T16:42:56.174Z,16.97
2019-03-03T16:46:59.971Z,16.33
2019-03-03T16:51:03.749Z,16.73
2019-03-03T16:55:08.290Z,20.17
2019-03-03T16:59:12.486Z,18.67
2019-03-03T17:03:16.210Z,16.90
2019-03-03T17:07:19.947Z,17.67
2019-03-03T17:11:23.698Z,18.37
2019-03-03T17:15:27.506Z,14.40
2019-03-03T17:19:31.323Z,16.90
2019-03-03T17:23:35.042Z,13.47
2019-03-03T17:27:38.958Z,15.30
2019-03-03T17:31:43.050Z,14.87
2019-03-03T17:35:47.166Z,14.53
2019-03-03T17:39:50.920Z,15.27
2019-03-03T17:43:54.646Z,15.50
2019-03-03T17:47:58.364Z,15.93
2019-03-03T17:52:02.170Z,16.17
2019-03-03T17:56:06.250Z,15.67
2019-03-03T18:00:13.397Z,14.87
2019-03-03T18:04:17.487Z,13.77
2019-03-03T18:08:20.819Z,12.57
2019-03-03T18:12:24.611Z,11.87
2019-03-03T18:16:28.766Z,12.33
2019-03-03T18:20:32.589Z,11.83
2019-03-03T18:24:36.307Z,11.73
2019-03-03T18:28:40.398Z,11.10
2019-03-03T18:32:44.438Z,9.30
2019-03-03T18:36:48.715Z,9.80
2019-03-03T18:40:52.503Z,10.40
2019-03-03T18:44:56.230Z,8.57
2019-03-03T18:49:00.018Z,8.53
2019-03-03T18:53:03.975Z,8.47
2019-03-03T18:57:07.778Z,6.90
2019-03-03T19:01:11.630Z,8.40
2019-03-03T19:05:17.602Z,7.93
2019-03-03T19:09:22.031Z,8.00
2019-03-03T19:13:25.898Z,7.20
2019-03-03T19:17:30.029Z,7.60
2019-03-03T19:21:33.876Z,9.67
2019-03-03T19:25:37.762Z,6.83
2019-03-03T19:29:43.017Z,8.47
2019-03-03T19:33:53.186Z,7.90
2019-03-03T19:37:56.986Z,8.50
2019-03-03T19:42:00.304Z,8.30
2019-03-03T19:46:03.836Z,10.07
2019-03-03T19:50:08.175Z,7.40
2019-03-03T19:54:12.296Z,7.37
2019-03-03T19:58:15.651Z,6.97
2019-03-03T20:02:19.081Z,8.30
2019-03-03T20:06:22.416Z,7.87
2019-03-03T20:10:28.947Z,6.10
2019-03-03T20:14:34.491Z,7.13
2019-03-03T20:18:37.804Z,6.27
2019-03-03T20:22:42.116Z,7.50
2019-03-03T20:26:45.856Z,6.10
2019-03-03T20:30:51.377Z,8.27
2019-03-03T20:34:54.674Z,6.90
2019-03-03T20:38:58.421Z,6.43
2019-03-03T20:43:01.718Z,6.73
2019-03-03T20:47:05.091Z,7.60
2019-03-03T20:51:08.413Z,8.70
2019-03-03T20:55:12.570Z,8.47
2019-03-03T20:59:16.175Z,9.27
2019-03-03T21:03:21.776Z,9.20
2019-03-03T21:07:25.603Z,9.00
2019-03-03T21:11:29.400Z,9.17
2019-03-03T21:15:32.763Z,9.20
2019-03-03T21:19:36.055Z,8.90
2019-03-03T21:23:39.347Z,9.33
2019-03-03T21:27:42.907Z,9.60
2019-03-03T21:31:46.195Z,8.07
2019-03-03T21:35:49.822Z,8.20
2019-03-03T21:39:53.105Z,6.37
2019-03-03T21:43:56.835Z,7.00
2019-03-03T21:48:00.854Z,8.10
2019-03-03T21:52:04.134Z,7.10
2019-03-03T21:56:07.946Z,7.67
2019-03-03T22:00:17.750Z,7.10
2019-03-03T22:04:21.211Z,6.40
2019-03-03T22:08:24.507Z,6.40
2019-03-03T22:12:27.803Z,6.70
2019-03-03T22:16:31.083Z,6.60
2019-03-03T22:20:34.427Z,5.43
2019-03-03T22:24:38.503Z,6.00
2019-03-03T22:28:41.790Z,5.43
2019-03-03T22:32:45.599Z,6.33
2019-03-03T22:36:49.326Z,6.73
2019-03-03T22:40:52.622Z,7.40
2019-03-03T22:44:56.662Z,5.47
2019-03-03T22:49:00.407Z,6.13
2019-03-03T22:53:03.770Z,6.20
2019-03-03T22:57:07.054Z,6.33
2019-03-03T23:01:13.266Z,6.40
2019-03-03T23:05:19.167Z,6.40
2019-03-03T23:09:59.511Z,6.83
2019-03-03T23:14:23.654Z,7.77
2019-03-03T23:18:37.786Z,6.33
2019-03-03T23:23:31.782Z,6.33
2019-03-03T23:27:35.494Z,7.00
2019-03-03T23:31:39.227Z,6.60
2019-03-03T23:35:42.530Z,6.63
2019-03-03T23:39:45.800Z,7.10
2019-03-03T23:43:49.214Z,6.80
2019-03-03T23:47:52.514Z,6.17
2019-03-03T23:51:56.250Z,6.63
2019-03-03T23:55:59.542Z,6.93
